Time;durP1;ratioP1;P1;durP2;ratioP2;P2;SDS_P1;SDS_P2;PMS_P1;PMS_P2;Temp;Humidity;BMP_temperature;BMP_pressure;BME280_temperature;BME280_humidity;BME280_pressure;Samples;Min_cycle;Max_cycle;Signal;HPM_P1;HPM_P2
2023/12/25 00:01:00;;;;;;;14.98;3.30;;;;;;;18.52;94.73;100487.63;4983001;28;20044;-36
2023/12/25 00:03:26;;;;;;;12.68;3.53;;;;;;;18.52;94.56;100490.38;4999094;28;20124;-36
2023/12/25 00:05:51;;;;;;;16.70;4.55;;;;;;;18.52;94.89;100506.84;5000752;28;20614;-36
2023/12/25 00:08:16;;;;;;;16.88;4.40;;;;;;;18.51;94.86;100502.47;5001683;28;20026;-36
2023/12/25 00:10:42;;;;;;;16.73;4.05;;;;;;;18.51;94.81;100482.44;4998758;28;20461;-37
2023/12/25 00:13:07;;;;;;;17.38;4.07;;;;;;;18.52;94.70;100490.38;4997962;28;20109;-37
2023/12/25 00:15:33;;;;;;;19.77;4.50;;;;;;;18.52;94.79;100503.28;5002406;28;20038;-37
2023/12/25 00:17:58;;;;;;;17.77;4.05;;;;;;;18.51;95.16;100502.47;4999545;28;20215;-36
2023/12/25 00:20:23;;;;;;;13.02;3.70;;;;;;;18.50;94.86;100494.53;4999199;28;20084;-36
2023/12/25 00:22:49;;;;;;;15.75;4.22;;;;;;;18.49;94.90;100504.69;5000553;28;20101;-36
2023/12/25 00:25:14;;;;;;;14.63;3.85;;;;;;;18.48;95.17;100504.97;5002037;28;20033;-37
2023/12/25 00:27:40;;;;;;;13.13;3.85;;;;;;;18.47;95.08;100506.06;5001845;28;20057;-38
2023/12/25 00:30:06;;;;;;;14.23;3.67;;;;;;;18.46;94.85;100518.97;4994696;28;20041;-38
2023/12/25 00:32:31;;;;;;;14.25;3.60;;;;;;;18.46;95.04;100513.50;5000599;28;20022;-37
2023/12/25 00:34:56;;;;;;;13.10;3.80;;;;;;;18.47;94.96;100519.78;4996394;28;20109;-38
2023/12/25 00:37:22;;;;;;;15.27;4.15;;;;;;;18.47;95.22;100515.13;4999912;28;20413;-38
2023/12/25 00:39:47;;;;;;;17.50;4.03;;;;;;;18.47;95.20;100515.13;4997136;28;20064;-38
2023/12/25 00:42:13;;;;;;;17.73;4.18;;;;;;;18.47;95.00;100530.75;4992776;28;20491;-37
2023/12/25 00:44:38;;;;;;;17.25;4.28;;;;;;;18.48;95.33;100521.44;5000377;28;20061;-36
2023/12/25 00:47:03;;;;;;;17.05;4.38;;;;;;;18.48;95.05;100518.69;5002190;28;20060;-36
2023/12/25 00:49:29;;;;;;;15.23;4.00;;;;;;;18.47;95.06;100504.16;4999042;28;20022;-37
2023/12/25 00:51:54;;;;;;;14.82;3.95;;;;;;;18.48;95.33;100526.91;4998474;28;20040;-35
2023/12/25 00:54:19;;;;;;;14.50;4.32;;;;;;;18.47;95.53;100511.56;4990768;28;20117;-37
2023/12/25 00:56:45;;;;;;;18.90;4.07;;;;;;;18.46;95.51;100507.19;4995741;28;20030;-36
2023/12/25 00:59:11;;;;;;;13.65;4.07;;;;;;;18.43;95.79;100505.84;4969792;28;20084;-38
2023/12/25 01:01:36;;;;;;;16.85;3.85;;;;;;;18.42;95.70;100516.00;4980223;28;20034;-37
2023/12/25 01:04:02;;;;;;;13.90;4.05;;;;;;;18.40;95.99;100512.69;4997318;28;20036;-38
2023/12/25 01:06:27;;;;;;;12.15;3.60;;;;;;;18.40;95.84;100515.44;4994558;28;20033;-38
2023/12/25 01:08:53;;;;;;;16.45;3.85;;;;;;;18.37;95.84;100516.03;5000614;28;20117;-36
2023/12/25 01:11:18;;;;;;;12.25;3.95;;;;;;;18.37;96.17;100504.22;4998212;28;20422;-37
2023/12/25 01:13:44;;;;;;;13.70;4.22;;;;;;;18.39;96.23;100515.75;5000969;28;20368;-35
2023/12/25 01:16:09;;;;;;;14.98;4.40;;;;;;;18.39;96.11;100505.59;4999536;28;20033;-35
2023/12/25 01:18:34;;;;;;;15.10;3.70;;;;;;;18.40;96.22;100509.16;4995352;28;20371;-37
2023/12/25 01:21:00;;;;;;;16.00;3.80;;;;;;;18.40;96.02;100504.47;5001308;28;20033;-37
2023/12/25 01:23:26;;;;;;;15.88;4.03;;;;;;;18.41;96.11;100516.28;4999637;28;20026;-36
2023/12/25 01:25:51;;;;;;;18.83;4.68;;;;;;;18.41;95.99;100511.59;5011914;28;20117;-37
2023/12/25 01:28:16;;;;;;;12.45;3.75;;;;;;;18.39;96.25;100518.47;5000088;28;20460;-37
2023/12/25 01:30:42;;;;;;;12.43;3.60;;;;;;;18.40;96.11;100520.13;5000009;28;20275;-37
2023/12/25 01:33:07;;;;;;;16.08;3.72;;;;;;;18.38;96.50;100539.63;4996874;28;20085;-37
2023/12/25 01:35:32;;;;;;;16.35;4.40;;;;;;;18.37;96.50;100527.00;4998151;28;20040;-36
2023/12/25 01:37:58;;;;;;;16.27;4.03;;;;;;;18.37;96.53;100524.28;5002872;28;20026;-37
2023/12/25 01:40:23;;;;;;;12.48;3.58;;;;;;;18.35;96.50;100523.72;5002875;28;20026;-37
2023/12/25 01:42:49;;;;;;;15.05;3.83;;;;;;;18.36;96.55;100514.41;5003310;28;20550;-37
2023/12/25 01:45:14;;;;;;;16.08;4.22;;;;;;;18.35;96.59;100518.25;5002268;28;20056;-36
2023/12/25 01:47:39;;;;;;;20.63;4.13;;;;;;;18.34;96.78;100519.34;5002140;28;20476;-37
2023/12/25 01:50:06;;;;;;;15.00;3.97;;;;;;;18.34;96.66;100519.34;5003573;28;20057;-36
2023/12/25 01:52:32;;;;;;;15.18;3.53;;;;;;;18.34;96.75;100519.34;5001052;28;20282;-37
2023/12/25 01:54:58;;;;;;;15.98;4.10;;;;;;;18.34;96.62;100524.03;5003309;28;20413;-37
2023/12/25 01:57:28;;;;;;;15.35;3.78;;;;;;;18.33;97.06;100523.22;5003019;28;20463;-37
2023/12/25 01:59:54;;;;;;;16.85;4.03;;;;;;;18.34;96.90;100541.28;5002918;28;20112;-36
2023/12/25 02:02:20;;;;;;;15.20;3.97;;;;;;;18.34;96.89;100530.31;5003148;28;20033;-36
2023/12/25 02:04:46;;;;;;;15.90;3.83;;;;;;;18.33;96.98;100541.59;5003874;28;20088;-37
2023/12/25 02:07:12;;;;;;;15.23;3.58;;;;;;;18.34;96.83;100554.19;4984705;28;20041;-37
2023/12/25 02:09:37;;;;;;;12.55;3.58;;;;;;;18.33;96.86;100561.63;4986417;28;20076;-36
2023/12/25 02:12:03;;;;;;;13.88;3.70;;;;;;;18.32;97.16;100568.22;4986899;28;20038;-36
2023/12/25 02:14:29;;;;;;;12.88;3.58;;;;;;;18.32;97.02;100568.22;5005174;28;20034;-37
2023/12/25 02:16:54;;;;;;;12.77;3.10;;;;;;;18.34;96.91;100567.91;5001773;28;20738;-36
2023/12/25 02:19:25;;;;;;;15.27;3.75;;;;;;;18.32;96.93;100570.94;5002632;28;20390;-37
2023/12/25 02:21:51;;;;;;;13.63;3.25;;;;;;;18.30;96.85;100558.63;5002086;28;20034;-36
2023/12/25 02:24:19;;;;;;;13.57;3.75;;;;;;;18.31;97.24;100557.50;5000127;28;20123;-37
2023/12/25 02:26:44;;;;;;;13.93;3.03;;;;;;;18.30;97.13;100556.69;4985727;28;20381;-37
2023/12/25 02:29:09;;;;;;;16.52;3.50;;;;;;;18.31;97.16;100560.25;4968866;28;20100;-37
2023/12/25 02:31:35;;;;;;;13.30;3.83;;;;;;;18.30;97.11;100569.59;4982888;28;20484;-38
2023/12/25 02:34:01;;;;;;;14.52;3.58;;;;;;;18.30;96.95;100564.91;5018319;28;20033;-37
2023/12/25 02:36:26;;;;;;;13.77;3.45;;;;;;;18.28;97.38;100567.97;5002397;28;20414;-36
2023/12/25 02:38:52;;;;;;;12.82;3.33;;;;;;;18.28;97.29;100559.72;4985492;28;20049;-36
2023/12/25 02:41:17;;;;;;;16.00;3.95;;;;;;;18.28;97.35;100559.72;5002151;28;20094;-37
2023/12/25 02:43:42;;;;;;;18.48;4.22;;;;;;;18.28;97.44;100558.91;5004826;28;20057;-38
2023/12/25 02:46:08;;;;;;;13.70;3.53;;;;;;;18.28;97.23;100558.91;4986872;28;20030;-38
2023/12/25 02:48:33;;;;;;;16.38;4.18;;;;;;;18.27;97.31;100563.56;4985887;28;20048;-38
2023/12/25 02:50:58;;;;;;;13.02;3.40;;;;;;;18.27;97.38;100563.56;4984883;28;20121;-36
2023/12/25 02:53:24;;;;;;;12.00;3.53;;;;;;;18.27;97.14;100571.81;4986209;28;20080;-37
2023/12/25 02:55:49;;;;;;;16.20;3.65;;;;;;;18.27;97.33;100574.53;5003070;28;20034;-36
2023/12/25 02:58:15;;;;;;;12.23;3.22;;;;;;;18.26;97.28;100575.66;4971581;28;20421;-35
2023/12/25 03:00:40;;;;;;;12.73;3.53;;;;;;;18.27;97.48;100574.53;5002187;28;20084;-37
2023/12/25 03:03:05;;;;;;;11.93;3.50;;;;;;;18.26;97.23;100570.16;5003606;28;20053;-36
2023/12/25 03:05:31;;;;;;;15.27;3.88;;;;;;;18.27;97.26;100599.22;4984837;28;20038;-36
2023/12/25 03:07:56;;;;;;;15.40;3.42;;;;;;;18.26;97.41;100592.09;5001494;28;20427;-37
2023/12/25 03:10:21;;;;;;;10.77;3.35;;;;;;;18.27;97.54;100601.97;5002531;28;20336;-37
2023/12/25 03:12:47;;;;;;;12.52;3.25;;;;;;;18.27;97.37;100599.22;5003402;28;20026;-36
2023/12/25 03:15:12;;;;;;;14.68;3.72;;;;;;;18.27;97.37;100595.66;5002284;28;20030;-36
2023/12/25 03:17:37;;;;;;;12.88;3.70;;;;;;;18.27;97.46;100598.41;5002466;28;20133;-38
2023/12/25 03:20:03;;;;;;;13.25;3.95;;;;;;;18.26;97.59;100605.81;5002918;28;20040;-36
2023/12/25 03:22:29;;;;;;;15.32;3.50;;;;;;;18.26;97.63;100608.56;4982032;28;20529;-36
2023/12/25 03:24:54;;;;;;;14.05;3.63;;;;;;;18.24;97.65;100610.75;5003313;28;20025;-36
2023/12/25 03:27:23;;;;;;;10.40;3.20;;;;;;;18.23;97.48;100611.91;5002754;28;20683;-36
2023/12/25 03:29:48;;;;;;;14.70;3.28;;;;;;;18.24;97.90;100612.69;4980048;28;20115;-38
2023/12/25 03:32:14;;;;;;;13.90;3.78;;;;;;;18.24;97.74;100605.28;4999904;28;20145;-37
2023/12/25 03:34:49;;;;;;;14.48;3.70;;;;;;;18.23;97.90;100605.56;5002707;28;20033;-37
2023/12/25 03:37:15;;;;;;;14.18;3.88;;;;;;;18.24;97.60;100607.22;5002187;28;20112;-37
2023/12/25 03:39:41;;;;;;;12.18;3.55;;;;;;;18.22;98.00;100602.03;5003968;28;20542;-39
2023/12/25 03:42:06;;;;;;;11.10;3.47;;;;;;;18.22;98.05;100584.72;5001905;28;20104;-37
2023/12/25 03:44:31;;;;;;;15.10;3.58;;;;;;;18.24;98.00;100596.25;5001298;28;20391;-37
2023/12/25 03:46:57;;;;;;;9.50;3.38;;;;;;;18.22;97.88;100591.03;4998707;28;20042;-36
2023/12/25 03:49:22;;;;;;;9.63;2.95;;;;;;;18.25;97.68;100595.94;5003673;28;20462;-36
2023/12/25 03:51:47;;;;;;;14.05;3.20;;;;;;;18.23;97.94;100592.69;5000314;28;20230;-36
2023/12/25 03:54:13;;;;;;;13.10;3.33;;;;;;;18.23;97.83;100591.84;5002356;28;20061;-38
2023/12/25 03:56:38;;;;;;;16.92;4.03;;;;;;;18.22;98.11;100591.03;4983535;28;20083;-37
2023/12/25 03:59:04;;;;;;;13.18;3.30;;;;;;;18.22;97.98;100581.97;5003085;28;20055;-37
2023/12/25 04:01:29;;;;;;;10.30;3.38;;;;;;;18.21;98.20;100583.06;4998661;28;20108;-38
2023/12/25 04:03:55;;;;;;;10.60;3.33;;;;;;;18.21;97.85;100588.56;5001751;28;20084;-36
2023/12/25 04:06:24;;;;;;;12.18;3.38;;;;;;;18.21;97.95;100597.63;5016588;28;20036;-37
2023/12/25 04:08:49;;;;;;;15.02;3.30;;;;;;;18.22;97.89;100598.44;5000065;28;20096;-36
2023/12/25 04:11:22;;;;;;;12.75;3.15;;;;;;;18.22;98.16;100587.47;4986125;28;20076;-37
2023/12/25 04:13:54;;;;;;;11.02;3.22;;;;;;;18.22;98.02;100601.19;4997696;28;20041;-36
2023/12/25 04:16:20;;;;;;;9.55;3.08;;;;;;;18.21;98.01;100596.78;5002424;28;20091;-38
2023/12/25 04:18:46;;;;;;;11.38;3.60;;;;;;;18.22;98.11;100602.03;4998575;28;20066;-36
2023/12/25 04:21:28;;;;;;;11.02;3.20;;;;;;;18.23;98.01;100589.13;5001335;28;20033;-37
2023/12/25 04:23:55;;;;;;;13.18;3.33;;;;;;;18.22;98.08;100602.03;5000993;28;20026;-36
2023/12/25 04:26:21;;;;;;;11.10;2.97;;;;;;;18.22;97.99;100617.63;5002794;28;20030;-36
2023/12/25 04:28:47;;;;;;;11.80;3.30;;;;;;;18.22;98.25;100606.66;5001451;28;20046;-36
2023/12/25 04:31:13;;;;;;;9.68;2.95;;;;;;;18.22;98.31;100601.19;4999171;28;20088;-37
2023/12/25 04:33:38;;;;;;;14.50;3.33;;;;;;;18.22;98.06;100592.94;5000994;28;20029;-37
2023/12/25 04:36:04;;;;;;;11.02;3.33;;;;;;;18.22;98.14;100584.72;5001914;28;20429;-37
2023/12/25 04:38:29;;;;;;;11.77;2.92;;;;;;;18.22;98.43;100602.03;5001202;28;20457;-37
2023/12/25 04:40:55;;;;;;;12.40;3.08;;;;;;;18.21;98.15;100596.78;4984520;28;20033;-37
2023/12/25 04:43:21;;;;;;;10.43;3.05;;;;;;;18.20;98.39;100582.28;5000687;28;20329;-37
2023/12/25 04:45:46;;;;;;;12.38;2.85;;;;;;;18.21;98.16;100577.59;5002161;28;20129;-36
2023/12/25 04:48:11;;;;;;;9.27;2.55;;;;;;;18.21;98.13;100580.34;5000887;28;20465;-37
2023/12/25 04:50:38;;;;;;;11.07;2.72;;;;;;;18.21;98.24;100588.56;5001935;28;20025;-38
2023/12/25 04:53:04;;;;;;;13.40;3.15;;;;;;;18.21;98.34;100583.06;5000538;28;20030;-37
2023/12/25 04:55:29;;;;;;;9.10;2.50;;;;;;;18.20;98.34;100582.28;5001978;28;20037;-36
2023/12/25 04:57:54;;;;;;;11.50;3.45;;;;;;;18.21;98.25;100566.63;5000025;28;20140;-37
2023/12/25 05:00:20;;;;;;;9.88;2.65;;;;;;;18.19;98.12;100564.16;5001349;28;20056;-36
2023/12/25 05:02:46;;;;;;;8.65;3.13;;;;;;;18.20;98.28;100574.03;4983629;28;20034;-37
2023/12/25 05:05:11;;;;;;;8.20;2.20;;;;;;;18.20;98.10;100576.78;5001969;28;20398;-37
2023/12/25 05:07:37;;;;;;;8.00;2.40;;;;;;;18.20;98.09;100584.22;5000497;28;20100;-37
2023/12/25 05:10:03;;;;;;;7.30;2.53;;;;;;;18.21;97.83;100583.06;4985036;28;20026;-36
2023/12/25 05:12:28;;;;;;;9.68;3.10;;;;;;;18.21;98.02;100580.34;5004572;28;20041;-36
2023/12/25 05:14:54;;;;;;;8.45;2.83;;;;;;;18.22;97.77;100584.72;5005057;28;20029;-41
2023/12/25 05:17:19;;;;;;;8.52;2.40;;;;;;;18.21;97.59;100575.69;5005628;28;20042;-37
2023/12/25 05:19:44;;;;;;;10.85;2.47;;;;;;;18.21;97.72;100589.41;5005265;28;20466;-36
2023/12/25 05:22:10;;;;;;;6.22;2.13;;;;;;;18.22;97.89;100609.41;4986901;28;20461;-36
2023/12/25 05:24:35;;;;;;;9.95;2.50;;;;;;;18.22;97.74;100606.66;4988073;28;20037;-38
2023/12/25 05:27:01;;;;;;;6.90;2.30;;;;;;;18.23;97.66;100602.81;5001681;28;20033;-37
2023/12/25 05:29:26;;;;;;;7.55;2.42;;;;;;;18.26;97.60;100607.75;5006244;28;20046;-36
2023/12/25 05:31:51;;;;;;;5.40;1.92;;;;;;;18.30;97.35;100603.34;5004084;28;20497;-36
2023/12/25 05:34:17;;;;;;;6.55;2.00;;;;;;;18.34;97.06;100587.94;4985113;28;20289;-36
2023/12/25 05:36:42;;;;;;;6.18;2.15;;;;;;;18.40;97.02;100584.03;5002275;28;20582;-38
2023/12/25 05:39:08;;;;;;;6.38;2.40;;;;;;;18.47;96.78;100597.47;5005167;28;20340;-37
2023/12/25 05:41:34;;;;;;;4.65;1.90;;;;;;;18.54;96.63;100600.69;4985421;28;20096;-36
2023/12/25 05:43:59;;;;;;;6.47;2.10;;;;;;;18.62;96.39;100596.50;5004706;28;20418;-37
2023/12/25 05:46:25;;;;;;;4.32;1.98;;;;;;;18.73;95.79;100606.28;4986091;28;20030;-36
2023/12/25 05:48:50;;;;;;;6.18;2.17;;;;;;;18.84;95.42;100604.28;4987290;28;20033;-37
2023/12/25 05:51:15;;;;;;;7.70;2.28;;;;;;;18.94;95.42;100605.34;5003935;28;20117;-37
2023/12/25 05:53:41;;;;;;;3.88;1.80;;;;;;;19.05;94.78;100595.91;5002618;28;20041;-37
2023/12/25 05:56:06;;;;;;;4.43;2.33;;;;;;;19.15;94.59;100614.19;5005202;28;20026;-37
2023/12/25 05:58:32;;;;;;;6.10;1.80;;;;;;;19.23;94.14;100610.81;4988366;28;20038;-37
2023/12/25 06:00:57;;;;;;;4.75;1.80;;;;;;;19.31;93.92;100612.13;5003589;28;20030;-36
2023/12/25 06:03:22;;;;;;;5.78;1.73;;;;;;;19.36;93.61;100604.63;5005296;28;20110;-36
2023/12/25 06:05:48;;;;;;;4.55;1.70;;;;;;;19.42;93.57;100593.59;5001983;28;20026;-37
2023/12/25 06:08:13;;;;;;;6.90;2.05;;;;;;;19.45;93.03;100604.81;4968032;28;20087;-37
2023/12/25 06:10:39;;;;;;;4.40;1.63;;;;;;;19.49;92.74;100602.31;5000784;28;20647;-38
2023/12/25 06:13:04;;;;;;;5.90;1.80;;;;;;;19.50;92.50;100612.19;5002673;28;20396;-37
2023/12/25 06:15:29;;;;;;;3.88;1.42;;;;;;;19.50;92.43;100606.69;5002259;28;20060;-37
2023/12/25 06:17:55;;;;;;;4.53;1.80;;;;;;;19.50;92.57;100603.94;5003394;28;20034;-37
2023/12/25 06:20:23;;;;;;;7.05;1.80;;;;;;;19.50;92.25;100607.50;5000757;28;20026;-36
2023/12/25 06:22:48;;;;;;;5.80;1.90;;;;;;;19.49;92.44;100608.59;5001558;28;20356;-37
2023/12/25 06:25:14;;;;;;;5.93;1.92;;;;;;;19.48;91.85;100612.47;5001161;28;20037;-36
2023/12/25 06:27:40;;;;;;;4.13;1.70;;;;;;;19.47;92.16;100597.09;5004128;28;20466;-37
2023/12/25 06:30:05;;;;;;;4.15;1.60;;;;;;;19.46;91.91;100606.47;5002444;28;20105;-37
2023/12/25 06:32:31;;;;;;;4.85;1.90;;;;;;;19.46;91.98;100613.88;5005838;28;20026;-38
2023/12/25 06:34:56;;;;;;;4.18;1.55;;;;;;;19.44;91.88;100616.91;5001605;28;20042;-37
2023/12/25 06:37:21;;;;;;;4.45;1.83;;;;;;;19.43;91.78;100609.78;5003709;28;20032;-37
2023/12/25 06:39:47;;;;;;;4.72;1.73;;;;;;;19.41;92.03;100614.75;5002059;28;20084;-37
2023/12/25 06:42:12;;;;;;;5.82;1.63;;;;;;;19.39;91.87;100606.78;5003753;28;20032;-38
2023/12/25 06:44:39;;;;;;;6.25;1.85;;;;;;;19.38;91.81;100618.09;5004071;28;20080;-37
2023/12/25 06:47:05;;;;;;;4.47;1.77;;;;;;;19.35;91.88;100627.72;5001909;28;20108;-38
2023/12/25 06:49:30;;;;;;;5.18;1.75;;;;;;;19.33;91.96;100624.44;4986689;28;20124;-37
2023/12/25 06:51:56;;;;;;;6.10;2.00;;;;;;;19.32;92.08;100631.03;5002124;28;20029;-38
2023/12/25 06:54:22;;;;;;;4.95;1.90;;;;;;;19.30;91.83;100633.28;5003327;28;20052;-38
2023/12/25 06:56:48;;;;;;;5.15;1.80;;;;;;;19.28;92.04;100621.75;5001411;28;20030;-38
2023/12/25 06:59:13;;;;;;;4.32;1.70;;;;;;;19.27;91.90;100630.31;5002375;28;20060;-37
2023/12/25 07:01:39;;;;;;;3.85;1.55;;;;;;;19.25;92.24;100630.56;5002492;28;20132;-37
2023/12/25 07:04:04;;;;;;;5.40;1.50;;;;;;;19.25;92.16;100638.81;5001598;28;20434;-36
2023/12/25 07:06:29;;;;;;;4.82;1.63;;;;;;;19.22;91.78;100633.91;5002273;28;20370;-37
2023/12/25 07:08:55;;;;;;;4.63;1.80;;;;;;;19.21;92.21;100630.34;5003005;28;20364;-37
2023/12/25 07:11:21;;;;;;;3.92;1.40;;;;;;;19.20;91.85;100633.38;5003081;28;20064;-37
2023/12/25 07:13:47;;;;;;;5.68;1.85;;;;;;;19.18;92.03;100639.16;5000414;28;20049;-36
2023/12/25 07:16:25;;;;;;;6.38;1.55;;;;;;;19.17;92.17;100633.97;5002933;28;20030;-37
2023/12/25 07:18:52;;;;;;;4.78;1.88;;;;;;;19.16;91.98;100644.13;5003490;28;20149;-38
2023/12/25 07:21:18;;;;;;;4.00;1.75;;;;;;;19.14;92.10;100645.53;5001772;28;20127;-37
2023/12/25 07:23:43;;;;;;;5.40;1.75;;;;;;;19.13;92.07;100649.38;5001436;28;20334;-37
2023/12/25 07:26:09;;;;;;;4.78;1.50;;;;;;;19.11;92.10;100640.63;5002151;28;20112;-38
2023/12/25 07:28:34;;;;;;;5.05;1.63;;;;;;;19.10;91.90;100647.22;4985377;28;20104;-38
2023/12/25 07:31:03;;;;;;;4.10;1.63;;;;;;;19.06;91.77;100641.47;5002587;28;20034;-37
2023/12/25 07:33:28;;;;;;;4.22;1.50;;;;;;;19.05;91.91;100637.09;4984009;28;20113;-37
2023/12/25 07:35:54;;;;;;;8.13;1.85;;;;;;;19.01;91.94;100638.78;5002310;28;20121;-36
2023/12/25 07:38:20;;;;;;;5.30;1.88;;;;;;;19.01;92.07;100633.28;5001467;28;20108;-37
2023/12/25 07:40:48;;;;;;;5.53;1.50;;;;;;;18.99;92.14;100639.06;4985521;28;20030;-37
2023/12/25 07:43:14;;;;;;;8.75;1.80;;;;;;;18.98;92.27;100658.56;4983404;28;20479;-37
2023/12/25 07:45:39;;;;;;;3.13;1.33;;;;;;;18.98;92.38;100662.16;5002575;28;20041;-37
2023/12/25 07:48:05;;;;;;;3.10;1.40;;;;;;;18.97;92.64;100671.50;5000094;28;20030;-36
2023/12/25 07:50:31;;;;;;;4.20;1.40;;;;;;;18.96;92.20;100675.34;4985428;28;20026;-37
2023/12/25 07:52:56;;;;;;;7.38;1.92;;;;;;;18.97;92.13;100676.16;4999687;28;20037;-37
2023/12/25 07:55:21;;;;;;;5.72;1.60;;;;;;;18.95;92.52;100668.22;5000786;28;20430;-37
2023/12/25 07:57:47;;;;;;;7.00;1.60;;;;;;;18.93;92.52;100659.44;4984035;28;20533;-36
2023/12/25 08:00:13;;;;;;;3.45;1.60;;;;;;;18.93;92.00;100664.91;5001708;28;20032;-37
2023/12/25 08:02:38;;;;;;;5.40;1.33;;;;;;;18.91;92.47;100672.66;5001265;28;20052;-36
2023/12/25 08:05:05;;;;;;;5.63;1.45;;;;;;;18.90;92.40;100676.47;5001165;28;20472;-37
2023/12/25 08:07:30;;;;;;;4.65;1.50;;;;;;;18.87;92.47;100674.28;4998795;28;20021;-37
2023/12/25 08:09:56;;;;;;;5.45;1.45;;;;;;;18.86;92.01;100678.97;5003798;28;20384;-37
2023/12/25 08:12:21;;;;;;;3.80;1.63;;;;;;;18.84;91.96;100672.94;4981912;28;20038;-37
2023/12/25 08:14:47;;;;;;;5.00;1.75;;;;;;;18.84;92.17;100677.63;4985484;28;20021;-36
2023/12/25 08:17:12;;;;;;;5.38;1.50;;;;;;;18.82;92.20;100677.06;5002147;28;20083;-37
2023/12/25 08:19:38;;;;;;;5.47;1.50;;;;;;;18.81;92.30;100680.91;5000501;28;20030;-36
2023/12/25 08:22:03;;;;;;;4.45;1.52;;;;;;;18.79;92.62;100662.00;5001518;28;20532;-36
2023/12/25 08:24:29;;;;;;;4.65;1.40;;;;;;;18.77;92.55;100670.53;5000839;28;20194;-37
2023/12/25 08:26:54;;;;;;;5.30;1.58;;;;;;;18.76;92.58;100679.88;4996395;28;20410;-38
2023/12/25 08:29:19;;;;;;;2.58;1.25;;;;;;;18.75;92.59;100689.19;5001678;28;20060;-37
2023/12/25 08:31:45;;;;;;;7.93;1.70;;;;;;;18.73;92.58;100683.16;4999825;28;20112;-36
2023/12/25 08:34:10;;;;;;;4.75;1.50;;;;;;;18.73;93.10;100685.91;5000171;28;20048;-38
2023/12/25 08:36:36;;;;;;;1.98;1.20;;;;;;;18.73;93.28;100688.66;4998423;28;20026;-37
2023/12/25 08:39:01;;;;;;;3.65;1.40;;;;;;;18.75;93.17;100691.94;4986667;28;20034;-35
2023/12/25 08:41:26;;;;;;;4.75;1.50;;;;;;;18.78;93.14;100687.81;5003576;28;20029;-36
2023/12/25 08:43:52;;;;;;;3.42;1.40;;;;;;;18.80;93.01;100706.72;4979429;28;20018;-37
2023/12/25 08:46:18;;;;;;;3.53;1.33;;;;;;;18.83;92.97;100697.94;4999039;28;20485;-37
2023/12/25 08:48:43;;;;;;;3.33;1.27;;;;;;;18.84;92.60;100707.81;4998235;28;20053;-37
2023/12/25 08:51:08;;;;;;;2.65;1.10;;;;;;;18.85;92.48;100693.00;4998898;28;20469;-36
2023/12/25 08:53:34;;;;;;;3.25;1.27;;;;;;;18.85;92.29;100688.31;4983349;28;20037;-37
2023/12/25 08:56:00;;;;;;;3.28;1.60;;;;;;;18.86;92.30;100686.38;5000053;28;20346;-35
2023/12/25 08:58:27;;;;;;;5.20;1.42;;;;;;;18.85;92.63;100702.03;5000092;28;20509;-37
2023/12/25 09:00:52;;;;;;;6.03;1.38;;;;;;;18.88;93.20;100722.59;4997959;28;20026;-36
2023/12/25 09:03:17;;;;;;;3.80;1.30;;;;;;;18.93;93.26;100711.59;4982950;28;20058;-37
2023/12/25 09:05:43;;;;;;;5.40;1.60;;;;;;;18.99;93.42;100721.44;4984065;28;20021;-37
2023/12/25 09:08:09;;;;;;;4.80;1.40;;;;;;;19.03;93.49;100728.03;4997076;28;20107;-38
2023/12/25 09:10:35;;;;;;;4.70;1.42;;;;;;;19.10;93.79;100733.19;5001601;28;20344;-37
2023/12/25 09:13:00;;;;;;;6.22;1.50;;;;;;;19.15;93.75;100752.38;4996446;28;20088;-38
2023/12/25 09:15:26;;;;;;;8.20;2.03;;;;;;;19.21;92.98;100745.75;5000745;28;20030;-38
2023/12/25 09:17:51;;;;;;;7.32;1.90;;;;;;;19.28;92.67;100736.34;4980865;28;20033;-38
2023/12/25 09:20:17;;;;;;;12.00;1.80;;;;;;;19.31;92.26;100725.59;4999445;28;20061;-37
2023/12/25 09:22:42;;;;;;;5.38;1.42;;;;;;;19.37;92.24;100721.72;4998850;28;20558;-35
2023/12/25 09:25:07;;;;;;;6.80;1.63;;;;;;;19.40;91.70;100729.34;5001204;28;20046;-37
2023/12/25 09:27:33;;;;;;;5.32;1.52;;;;;;;19.41;91.27;100732.91;5000448;28;20096;-36
2023/12/25 09:29:58;;;;;;;5.78;1.50;;;;;;;19.44;91.13;100731.53;5000845;28;20057;-36
2023/12/25 09:32:24;;;;;;;7.15;1.33;;;;;;;19.45;91.44;100741.41;5000924;28;20018;-37
2023/12/25 09:34:50;;;;;;;7.53;1.67;;;;;;;19.45;91.01;100753.22;4982315;28;20096;-37
2023/12/25 09:37:15;;;;;;;4.38;1.30;;;;;;;19.44;90.92;100740.59;4983067;28;20057;-38
2023/12/25 09:39:43;;;;;;;5.57;1.58;;;;;;;19.44;90.77;100734.28;4998799;28;20032;-35
2023/12/25 09:42:09;;;;;;;4.00;1.20;;;;;;;19.42;90.87;100734.56;4998601;28;20026;-38
2023/12/25 09:44:37;;;;;;;5.78;1.92;;;;;;;19.41;90.92;100741.16;4987315;28;20030;-38
2023/12/25 09:47:06;;;;;;;15.32;1.95;;;;;;;19.42;91.07;100742.00;4980991;28;20041;-36
2023/12/25 09:49:35;;;;;;;16.45;1.75;;;;;;;19.38;90.32;100747.25;4981254;28;20310;-38
2023/12/25 09:52:00;;;;;;;8.65;1.50;;;;;;;19.34;90.30;100722.28;4995563;28;20032;-37
2023/12/25 09:54:26;;;;;;;6.35;1.45;;;;;;;19.29;90.29;100727.81;4983089;28;20030;-38
2023/12/25 09:56:53;;;;;;;9.57;2.05;;;;;;;19.24;91.14;100736.91;5000542;28;20061;-36
2023/12/25 09:59:18;;;;;;;14.35;2.97;;;;;;;19.21;93.57;100750.41;4985073;28;20045;-37
2023/12/25 10:01:44;;;;;;;23.25;3.67;;;;;;;19.18;96.24;100754.56;5002866;28;20058;-37
2023/12/25 10:04:10;;;;;;;19.63;3.75;;;;;;;19.18;98.21;100764.72;4999251;28;20026;-37
2023/12/25 10:06:35;;;;;;;25.23;4.72;;;;;;;19.18;100.00;100768.28;5003907;28;20062;-37
2023/12/25 10:09:00;;;;;;;22.77;4.75;;;;;;;19.15;100.00;100757.84;5004858;28;20038;-38
2023/12/25 10:11:26;;;;;;;21.45;4.50;;;;;;;19.16;100.00;100759.50;4985429;28;20064;-37
2023/12/25 10:13:51;;;;;;;20.75;4.65;;;;;;;19.17;100.00;100752.09;5000845;28;20032;-37
2023/12/25 10:16:18;;;;;;;21.85;4.32;;;;;;;19.17;100.00;100757.59;5003741;28;20502;-36
2023/12/25 10:18:43;;;;;;;15.43;3.97;;;;;;;19.16;100.00;100759.50;5001798;28;20034;-36
2023/12/25 10:21:09;;;;;;;21.25;4.50;;;;;;;19.17;100.00;100744.66;5003275;28;20032;-38
2023/12/25 10:23:35;;;;;;;17.08;4.78;;;;;;;19.19;100.00;100761.69;4986225;28;20026;-36
2023/12/25 10:26:03;;;;;;;21.45;5.07;;;;;;;19.21;100.00;100770.47;5003353;28;20462;-38
2023/12/25 10:28:30;;;;;;;13.85;3.83;;;;;;;19.23;100.00;100768.25;4983107;28;20137;-38
2023/12/25 10:31:03;;;;;;;19.95;4.10;;;;;;;19.26;100.00;100786.06;5003704;28;20786;-37
2023/12/25 10:33:29;;;;;;;20.63;4.72;;;;;;;19.28;100.00;100772.88;5001342;28;20079;-38
2023/12/25 10:36:13;;;;;;;18.42;4.40;;;;;;;19.29;100.00;100771.78;4986643;28;20033;-36
2023/12/25 10:38:40;;;;;;;23.45;5.65;;;;;;;19.31;100.00;100783.31;5002340;28;20538;-37
2023/12/25 10:41:19;;;;;;;20.33;4.93;;;;;;;19.31;100.00;100785.22;4983892;28;20185;-37
2023/12/25 10:43:55;;;;;;;22.48;4.25;;;;;;;19.33;100.00;100778.34;5016609;28;20113;-39
2023/12/25 10:46:25;;;;;;;18.25;4.15;;;;;;;19.33;100.00;100780.28;4980969;28;20559;-38
2023/12/25 10:48:53;;;;;;;20.75;4.15;;;;;;;19.34;100.00;100781.91;4995201;28;20323;-36
2023/12/25 10:51:40;;;;;;;18.23;4.15;;;;;;;19.32;100.00;100764.88;4998849;28;20278;-36
2023/12/25 10:54:08;;;;;;;14.55;3.60;;;;;;;19.30;100.00;100770.69;4997652;28;20165;-37
2023/12/25 10:56:35;;;;;;;13.02;3.42;;;;;;;19.31;99.99;100774.22;4980358;28;20481;-39
2023/12/25 10:59:16;;;;;;;21.13;3.90;;;;;;;19.30;99.84;100756.94;4996380;28;20475;-39
2023/12/25 11:01:46;;;;;;;11.93;3.30;;;;;;;19.30;99.52;100748.69;5000176;28;20041;-37
2023/12/25 11:04:15;;;;;;;10.23;3.03;;;;;;;19.28;98.85;100750.91;5001154;28;20022;-37
2023/12/25 11:06:43;;;;;;;11.60;2.88;;;;;;;19.28;99.04;100756.41;5003075;28;20095;-36
2023/12/25 11:09:11;;;;;;;13.55;3.08;;;;;;;19.27;98.95;100753.94;5002955;28;20585;-37
2023/12/25 11:11:36;;;;;;;9.52;3.17;;;;;;;19.27;99.06;100764.94;5001857;28;20475;-36
2023/12/25 11:14:02;;;;;;;12.30;2.88;;;;;;;19.24;98.75;100750.66;4997222;28;20361;-37